Time;durP1;ratioP1;P1;durP2;ratioP2;P2;SDS_P1;SDS_P2;PMS_P1;PMS_P2;Temp;Humidity;BMP_temperature;BMP_pressure;BME280_temperature;BME280_humidity;BME280_pressure;Samples;Min_cycle;Max_cycle;Signal;HPM_P1;HPM_P2
2022/01/18 00:00:18;;;;;;;2.95;1.60;;;;;;;1.15;57.13;100784.66;4376030;32;34178;-67
2022/01/18 00:02:46;;;;;;;3.50;1.85;;;;;;;1.36;57.23;100780.69;4376047;32;34712;-67
2022/01/18 00:05:15;;;;;;;4.30;1.45;;;;;;;1.03;57.21;100784.09;4375461;32;34208;-67
2022/01/18 00:07:43;;;;;;;0.50;0.50;;;;;;;0.77;58.25;100778.81;4367901;32;33943;-68
2022/01/18 00:10:12;;;;;;;2.83;1.60;;;;;;;0.93;58.11;100783.41;4371029;32;33921;-68
2022/01/18 00:18:06;;;;;;;0.40;0.40;;;;;;;0.80;58.19;100801.72;4350740;32;33552;-68
2022/01/18 00:23:45;;;;;;;3.67;1.55;;;;;;;0.96;57.37;100804.44;4358610;32;33614;-70
2022/01/18 00:26:13;;;;;;;2.90;1.60;;;;;;;1.36;56.63;100799.41;4367749;32;34308;-69
2022/01/18 00:28:42;;;;;;;3.33;1.70;;;;;;;1.18;57.11;100815.56;4368296;32;34762;-69
2022/01/18 00:36:38;;;;;;;4.37;1.80;;;;;;;1.30;56.94;100827.63;4363180;32;34088;-69
2022/01/18 00:39:08;;;;;;;2.90;1.50;;;;;;;1.11;57.00;100833.25;4362441;32;34909;-69
2022/01/18 00:41:36;;;;;;;3.12;1.40;;;;;;;1.32;56.50;100849.72;4363118;32;34107;-69
2022/01/18 00:44:04;;;;;;;0.50;0.50;;;;;;;1.21;57.15;100855.34;4344221;32;168765;-70
2022/01/18 00:46:32;;;;;;;2.67;1.50;;;;;;;1.07;57.09;100843.41;4363016;32;34146;-68
2022/01/18 00:49:01;;;;;;;1.58;1.23;;;;;;;1.19;57.36;100847.47;4362403;32;34393;-68
2022/01/18 00:51:34;;;;;;;3.97;1.83;;;;;;;1.31;56.55;100855.22;4362638;32;33064;-68
2022/01/18 00:54:03;;;;;;;0.40;0.40;;;;;;;0.70;58.37;100851.72;4362889;32;33944;-68
2022/01/18 00:56:32;;;;;;;3.15;1.40;;;;;;;1.17;58.22;100867.34;4362929;32;34183;-69
2022/01/18 00:59:00;;;;;;;4.10;1.73;;;;;;;1.34;57.07;100866.44;4362284;32;33458;-69
2022/01/18 01:01:29;;;;;;;0.40;0.40;;;;;;;1.32;56.64;100865.75;4363018;32;34531;-69
2022/01/18 01:04:01;;;;;;;0.40;0.40;;;;;;;0.80;59.33;100874.66;4362542;32;33520;-69
2022/01/18 01:06:30;;;;;;;3.85;1.70;;;;;;;1.32;57.73;100873.78;4362606;32;34374;-68
2022/01/18 01:08:58;;;;;;;3.55;1.62;;;;;;;1.15;57.86;100880.87;4362119;32;35363;-69
2022/01/18 01:11:28;;;;;;;5.18;1.58;;;;;;;1.35;57.91;100881.47;4349101;32;33435;-69
2022/01/18 01:13:59;;;;;;;0.95;0.95;;;;;;;1.57;57.70;100884.53;4361429;32;34096;-69
2022/01/18 01:43:25;;;;;;;4.07;1.58;;;;;;;1.53;58.19;100908.09;4362376;32;33590;-69
2022/01/18 01:45:53;;;;;;;;;;;;;;;1.08;58.89;100914.59;4362740;32;33904;-68
2022/01/18 01:48:23;;;;;;;0.50;0.50;;;;;;;1.27;59.10;100912.66;4361873;32;35200;-68
2022/01/18 01:51:05;;;;;;;6.37;1.62;;;;;;;1.24;59.27;100903.12;4362389;32;33829;-68
2022/01/18 01:53:33;;;;;;;3.62;1.60;;;;;;;1.60;58.10;100911.00;4362316;32;34131;-68
2022/01/18 01:56:01;;;;;;;3.85;1.50;;;;;;;0.93;59.88;100905.44;4362393;32;34011;-67
2022/01/18 01:58:30;;;;;;;0.55;0.55;;;;;;;0.59;61.17;100911.56;4361921;32;34999;-67
2022/01/18 02:01:06;;;;;;;0.40;0.40;;;;;;;0.93;59.81;100908.13;4361842;32;34401;-67
2022/01/18 02:03:35;;;;;;;4.20;1.50;;;;;;;0.81;59.96;100907.56;4362492;32;33438;-67
2022/01/18 02:06:03;;;;;;;0.43;0.43;;;;;;;0.85;60.20;100914.28;4348813;32;34873;-67
2022/01/18 02:08:30;;;;;;;4.93;2.05;;;;;;;0.53;60.72;100930.88;4361872;32;34296;-69
2022/01/18 02:10:58;;;;;;;5.70;1.55;;;;;;;0.71;60.38;100920.16;4348734;32;33543;-68
2022/01/18 02:13:25;;;;;;;4.65;2.03;;;;;;;0.67;61.18;100934.81;4362305;32;33187;-68
2022/01/18 02:21:46;;;;;;;0.40;0.40;;;;;;;0.47;61.39;100926.16;4362288;32;34022;-67
2022/01/18 02:21:48;;;;;;;4.57;1.75;;;;;;;0.66;61.07;100930.50;4362256;32;33792;-68
2022/01/18 02:24:17;;;;;;;5.68;1.60;;;;;;;0.78;60.37;100932.75;4362231;32;33194;-69
2022/01/18 02:26:45;;;;;;;3.60;1.98;;;;;;;0.60;61.50;100931.94;4362142;32;33724;-69
2022/01/18 02:29:13;;;;;;;0.50;0.50;;;;;;;0.27;62.37;100936.16;4361504;32;34240;-68
2022/01/18 02:31:40;;;;;;;0.40;0.40;;;;;;;0.40;62.55;100929.44;4362027;32;33987;-68
2022/01/18 02:34:11;;;;;;;0.85;0.40;;;;;;;0.39;62.40;100930.44;4362148;32;34357;-68
2022/01/18 02:36:38;;;;;;;0.40;0.40;;;;;;;0.19;63.06;100926.22;4361705;32;33949;-69
2022/01/18 02:39:07;;;;;;;4.20;1.55;;;;;;;0.37;62.65;100932.44;4361909;32;34308;-68
2022/01/18 02:41:35;;;;;;;5.82;1.60;;;;;;;0.43;62.25;100930.94;4348637;32;34721;-68
2022/01/18 02:44:06;;;;;;;3.70;1.52;;;;;;;0.57;62.25;100927.75;4362356;32;33429;-68
2022/01/18 02:46:34;;;;;;;4.28;1.50;;;;;;;0.85;61.25;100916.94;4360676;32;34749;-67
2022/01/18 02:49:02;;;;;;;5.50;1.60;;;;;;;0.61;61.84;100931.78;4361508;32;33904;-67
2022/01/18 02:51:30;;;;;;;4.45;1.60;;;;;;;0.65;61.76;100931.47;4361738;32;33869;-67
2022/01/18 02:54:06;;;;;;;2.60;1.60;;;;;;;0.55;61.68;100935.06;4348593;32;33514;-67
2022/01/18 02:56:40;;;;;;;1.75;0.93;;;;;;;0.36;62.31;100938.75;4361743;32;33593;-69
2022/01/18 02:59:18;;;;;;;4.93;1.75;;;;;;;0.59;62.02;100943.62;4348530;32;34840;-68
2022/01/18 03:04:41;;;;;;;4.03;1.90;;;;;;;0.60;62.07;100953.31;4361957;32;33568;-68
2022/01/18 03:07:10;;;;;;;0.50;0.50;;;;;;;0.30;62.76;100963.41;4361890;32;33925;-68
2022/01/18 03:09:38;;;;;;;0.50;0.50;;;;;;;0.86;60.75;100969.37;4361274;32;34165;-68
2022/01/18 03:12:07;;;;;;;3.97;1.58;;;;;;;0.79;61.14;100976.34;4361961;32;33827;-68
2022/01/18 03:14:35;;;;;;;3.83;1.50;;;;;;;0.76;61.15;100977.47;4348080;32;33063;-68
2022/01/18 03:17:03;;;;;;;3.20;1.33;;;;;;;0.36;62.22;100984.12;4361721;32;33820;-69
2022/01/18 03:19:30;;;;;;;0.40;0.40;;;;;;;0.48;62.30;100990.09;4361472;32;34235;-68
2022/01/18 03:21:58;;;;;;;4.70;1.92;;;;;;;0.78;61.21;100994.19;4361459;32;34052;-68
2022/01/18 03:29:59;;;;;;;;;;;;;;;0.48;61.72;101008.78;4314892;33;34390;-68
2022/01/18 03:32:26;;;;;;;2.67;1.30;;;;;;;0.67;61.44;101013.16;4314778;33;33764;-68
2022/01/18 03:34:54;;;;;;;5.18;1.92;;;;;;;0.96;60.57;101022.72;4337494;32;33270;-67
2022/01/18 03:37:21;;;;;;;2.17;1.20;;;;;;;0.73;60.92;101033.87;4361347;32;33907;-68
2022/01/18 03:39:49;;;;;;;3.80;1.75;;;;;;;0.72;61.40;101029.53;4360753;32;34151;-68
2022/01/18 03:45:04;;;;;;;0.50;0.50;;;;;;;0.61;61.88;101043.13;4361360;32;33361;-68
2022/01/18 03:47:32;;;;;;;3.33;1.50;;;;;;;0.82;61.10;101049.00;4361040;32;34047;-69
2022/01/18 03:50:00;;;;;;;4.82;1.30;;;;;;;0.56;61.95;101045.41;4347575;32;33969;-68
2022/01/18 03:52:28;;;;;;;3.95;1.40;;;;;;;0.81;60.62;101041.13;4347458;32;33481;-68
2022/01/18 03:54:55;;;;;;;5.15;1.90;;;;;;;0.87;60.74;101045.88;4361242;32;34716;-68
2022/01/18 03:57:23;;;;;;;5.47;1.75;;;;;;;0.62;61.28;101048.28;4361453;32;34132;-68
2022/01/18 03:59:51;;;;;;;3.10;1.55;;;;;;;1.15;60.10;101054.63;4360683;32;34175;-67
2022/01/18 04:02:18;;;;;;;3.85;1.65;;;;;;;0.85;60.30;101050.53;4363090;32;33698;-69
2022/01/18 04:04:46;;;;;;;2.05;1.52;;;;;;;1.23;59.35;101059.16;4363315;32;33406;-68
2022/01/18 04:07:14;;;;;;;4.22;1.70;;;;;;;1.75;57.76;101061.00;4362817;32;34863;-68
2022/01/18 04:09:41;;;;;;;4.50;1.90;;;;;;;1.53;58.41;101059.72;4362818;32;34062;-68
2022/01/18 04:12:09;;;;;;;6.80;2.50;;;;;;;0.81;60.31;101076.69;4363194;32;33761;-68
2022/01/18 04:14:37;;;;;;;3.58;1.80;;;;;;;1.32;58.88;101076.97;4349569;32;33611;-69
2022/01/18 04:28:07;;;;;;;4.00;1.67;;;;;;;1.42;58.67;101085.72;4362820;32;33673;-69
2022/01/18 04:30:34;;;;;;;0.50;0.50;;;;;;;0.85;59.85;101087.94;4362796;32;34174;-69
2022/01/18 04:33:02;;;;;;;0.45;0.45;;;;;;;1.09;59.17;101086.47;4362614;32;34838;-68
2022/01/18 04:35:30;;;;;;;5.30;1.75;;;;;;;1.60;57.90;101090.22;4362957;32;33306;-68
2022/01/18 04:37:58;;;;;;;0.40;0.40;;;;;;;1.23;59.22;101083.22;4362630;32;34075;-68
2022/01/18 04:40:29;;;;;;;0.50;0.50;;;;;;;0.91;59.92;101090.00;4362749;32;34127;-68
2022/01/18 04:43:05;;;;;;;6.15;2.40;;;;;;;1.50;58.25;101090.31;4362666;32;34571;-69
2022/01/18 04:48:30;;;;;;;5.90;1.75;;;;;;;1.31;58.51;101104.69;4362458;32;34882;-69
2022/01/18 04:51:07;;;;;;;5.10;1.90;;;;;;;0.99;59.23;101114.13;4362420;32;34269;-68
2022/01/18 04:53:41;;;;;;;4.57;1.50;;;;;;;1.43;58.35;101113.31;4362779;32;33861;-69
2022/01/18 04:56:14;;;;;;;6.22;1.95;;;;;;;1.03;59.32;101128.84;4362782;32;33036;-68
2022/01/18 04:58:45;;;;;;;4.43;1.90;;;;;;;1.22;59.07;101125.19;4349258;32;34596;-67
2022/01/18 05:01:13;;;;;;;6.15;2.10;;;;;;;1.10;59.67;101122.88;4348074;32;35134;-68
2022/01/18 05:03:40;;;;;;;5.50;1.98;;;;;;;0.87;60.23;101128.69;4362851;32;33689;-68
2022/01/18 05:06:11;;;;;;;0.40;0.40;;;;;;;1.09;59.85;101115.88;4362541;32;33107;-67
2022/01/18 05:08:40;;;;;;;0.43;0.43;;;;;;;0.56;60.98;101122.84;4349310;32;34042;-68
2022/01/18 05:11:12;;;;;;;3.37;1.60;;;;;;;0.35;62.51;101131.13;4362681;32;34823;-67
2022/01/18 05:19:19;;;;;;;4.10;1.65;;;;;;;0.11;63.46;101129.81;4362313;32;34028;-67
2022/01/18 05:24:20;;;;;;;4.78;2.08;;;;;;;0.74;61.49;101123.72;4347684;33;34683;-67
2022/01/18 05:26:48;;;;;;;4.47;1.70;;;;;;;0.43;62.56;101115.19;4347716;33;34271;-68
2022/01/18 05:29:15;;;;;;;3.60;1.90;;;;;;;0.21;63.42;101116.41;4347160;33;34076;-68
2022/01/18 05:31:43;;;;;;;1.05;0.80;;;;;;;-0.08;64.67;101124.56;4347616;33;34341;-70
2022/01/18 05:34:11;;;;;;;5.47;2.78;;;;;;;0.05;64.44;101126.91;4347613;33;34086;-67
2022/01/18 05:36:39;;;;;;;4.12;1.90;;;;;;;0.46;62.66;101136.25;4347451;33;33296;-67
2022/01/18 05:39:11;;;;;;;5.70;1.80;;;;;;;0.31;63.65;101138.59;4347579;33;33591;-67
2022/01/18 05:41:41;;;;;;;5.72;1.83;;;;;;;0.33;63.40;101141.94;4346251;33;34208;-68
2022/01/18 05:44:27;;;;;;;5.22;1.85;;;;;;;0.06;64.50;101161.44;4342069;32;34832;-68
2022/01/18 05:46:54;;;;;;;4.60;1.87;;;;;;;0.15;64.08;101157.91;4362332;32;34178;-68
2022/01/18 05:49:22;;;;;;;7.45;2.65;;;;;;;0.36;63.90;101165.66;4361726;32;34651;-68
2022/01/18 05:51:49;;;;;;;0.50;0.50;;;;;;;0.12;64.47;101163.50;4362275;32;33931;-67
2022/01/18 05:54:17;;;;;;;4.20;2.25;;;;;;;0.08;64.58;101170.13;4362731;32;34086;-67
2022/01/18 05:56:44;;;;;;;3.70;2.00;;;;;;;-0.14;65.54;101165.16;4362228;32;34168;-68
2022/01/18 05:59:20;;;;;;;1.12;1.12;;;;;;;-0.36;66.08;101164.50;4361838;32;34049;-67
2022/01/18 06:01:50;;;;;;;6.10;2.45;;;;;;;0.25;64.41;101173.88;4361627;32;34050;-67
2022/01/18 06:06:50;;;;;;;7.68;2.20;;;;;;;-0.12;65.95;101173.84;4362197;32;34573;-67
2022/01/18 06:07:05;;;;;;;0.40;0.40;;;;;;;-0.47;67.12;101180.66;4362456;32;33848;-68
2022/01/18 06:09:33;;;;;;;6.70;2.30;;;;;;;-0.13;66.29;101178.34;4361540;32;33634;-67
2022/01/18 06:12:01;;;;;;;0.40;0.40;;;;;;;-0.37;66.91;101188.63;4361551;32;34953;-68
2022/01/18 06:14:28;;;;;;;4.10;1.90;;;;;;;-0.06;66.23;101184.78;4362497;32;34312;-69
2022/01/18 06:16:56;;;;;;;6.90;2.62;;;;;;;-0.07;65.86;101190.25;4363240;32;34341;-69
2022/01/18 06:19:23;;;;;;;0.50;0.50;;;;;;;-0.32;66.37;101192.56;4363172;32;34634;-69
2022/01/18 06:21:50;;;;;;;6.40;2.20;;;;;;;0.03;65.50;101192.91;4362795;32;34017;-70
2022/01/18 06:24:18;;;;;;;4.03;2.03;;;;;;;-0.17;66.22;101198.28;4362530;32;33814;-69
2022/01/18 06:27:06;;;;;;;7.22;2.62;;;;;;;0.45;64.47;101189.81;4363412;32;33480;-69
2022/01/18 06:29:34;;;;;;;2.87;1.62;;;;;;;0.19;65.30;101190.47;4349769;32;34726;-69
2022/01/18 06:32:04;;;;;;;4.80;1.85;;;;;;;0.24;65.02;101190.00;4362997;32;35173;-69
2022/01/18 06:34:32;;;;;;;6.43;2.97;;;;;;;0.20;65.20;101189.50;4362875;32;33919;-69
2022/01/18 06:36:59;;;;;;;5.20;2.10;;;;;;;0.49;64.29;101194.69;4362730;32;33505;-70
2022/01/18 06:39:27;;;;;;;2.95;1.37;;;;;;;0.36;64.68;101192.34;4363228;32;34023;-70
2022/01/18 06:41:55;;;;;;;8.95;3.40;;;;;;;0.34;64.80;101196.16;4349397;32;34245;-69
2022/01/18 06:44:24;;;;;;;0.55;0.55;;;;;;;-0.05;65.83;101204.28;4363060;32;33678;-70
2022/01/18 06:46:52;;;;;;;7.28;2.90;;;;;;;0.12;66.24;101211.56;4362984;32;34499;-70
2022/01/18 06:49:20;;;;;;;0.60;0.60;;;;;;;0.49;64.11;101216.06;4362665;32;34661;-69
2022/01/18 06:51:47;;;;;;;0.62;0.40;;;;;;;0.02;66.11;101224.06;4349492;32;35078;-70
2022/01/18 06:54:17;;;;;;;0.50;0.50;;;;;;;0.24;65.62;101222.03;4362983;32;33729;-69
2022/01/18 06:56:48;;;;;;;0.50;0.50;;;;;;;0.13;65.87;101218.59;4362746;32;33518;-68
2022/01/18 06:59:17;;;;;;;8.25;3.40;;;;;;;0.44;65.17;101222.84;4362940;32;34539;-71
2022/01/18 07:01:44;;;;;;;5.93;3.08;;;;;;;-0.04;66.31;101227.34;4363556;32;34970;-67
2022/01/18 07:04:13;;;;;;;0.43;0.43;;;;;;;0.11;66.02;101233.91;4371126;32;33699;-67
2022/01/18 07:06:41;;;;;;;5.97;2.33;;;;;;;0.20;65.96;101219.69;4346727;33;33559;-65
2022/01/18 07:09:08;;;;;;;5.37;2.50;;;;;;;0.17;66.20;101233.34;4346761;33;33897;-67
2022/01/18 07:11:36;;;;;;;6.95;2.40;;;;;;;0.10;66.71;101220.69;4346620;33;34803;-69
2022/01/18 07:14:04;;;;;;;8.38;2.60;;;;;;;-0.18;67.57;101225.94;4346747;33;34112;-67
2022/01/18 07:16:35;;;;;;;1.05;1.05;;;;;;;0.41;66.13;101223.97;4346491;33;33143;-68
2022/01/18 07:19:03;;;;;;;7.32;2.53;;;;;;;0.04;66.91;101216.75;4346225;33;34760;-67
2022/01/18 07:21:31;;;;;;;6.35;2.75;;;;;;;0.04;67.57;101224.75;4346430;33;35061;-66
2022/01/18 07:24:05;;;;;;;0.40;0.40;;;;;;;0.56;66.10;101232.34;4346451;33;34135;-68
2022/01/18 07:26:32;;;;;;;7.70;2.93;;;;;;;0.66;65.34;101224.28;4356901;32;33364;-66
2022/01/18 07:29:00;;;;;;;4.90;2.62;;;;;;;0.34;66.46;101236.22;4347833;32;33848;-66
2022/01/18 07:31:27;;;;;;;7.03;2.70;;;;;;;0.19;67.11;101223.34;4359825;32;34842;-65
2022/01/18 07:33:55;;;;;;;0.50;0.50;;;;;;;0.07;68.45;101215.66;4375238;32;33010;-67
2022/01/18 07:36:22;;;;;;;0.40;0.40;;;;;;;0.52;66.77;101225.59;4376891;32;33462;-68
2022/01/18 07:38:50;;;;;;;6.03;2.60;;;;;;;0.48;67.11;101227.75;4377883;32;34645;-67
2022/01/18 07:41:17;;;;;;;7.78;2.75;;;;;;;0.53;66.79;101227.31;4374710;32;34062;-67
2022/01/18 07:43:45;;;;;;;7.32;2.83;;;;;;;0.51;67.36;101227.44;4362773;32;34828;-68
2022/01/18 07:46:14;;;;;;;7.07;3.17;;;;;;;0.96;65.56;101234.66;4347924;33;33586;-68
2022/01/18 07:48:42;;;;;;;2.08;1.50;;;;;;;1.29;64.76;101237.69;4347653;33;33667;-68
2022/01/18 07:51:11;;;;;;;5.03;2.60;;;;;;;1.03;65.60;101242.94;4348141;33;34203;-67
2022/01/18 07:53:39;;;;;;;8.45;2.85;;;;;;;1.81;63.05;101259.28;4347974;33;34466;-68
2022/01/18 07:56:06;;;;;;;5.65;2.62;;;;;;;2.54;60.96;101252.72;4347720;33;33309;-68
2022/01/18 07:58:35;;;;;;;9.18;2.47;;;;;;;2.44;60.39;101255.53;4347965;33;34058;-68
2022/01/18 08:01:02;;;;;;;4.87;2.28;;;;;;;2.79;59.73;101267.09;4347783;32;33656;-69
2022/01/18 08:03:30;;;;;;;6.45;2.33;;;;;;;3.16;58.28;101270.44;4360103;32;33721;-68
2022/01/18 08:05:57;;;;;;;6.43;2.62;;;;;;;2.75;59.38;101268.41;4362799;32;32844;-69
2022/01/18 08:08:26;;;;;;;5.78;2.65;;;;;;;2.80;60.12;101265.25;4362506;32;35223;-67
2022/01/18 08:10:54;;;;;;;0.40;0.40;;;;;;;2.60;59.89;101275.38;4349078;32;33763;-68
2022/01/18 08:13:29;;;;;;;5.57;2.33;;;;;;;3.11;59.26;101270.06;4362562;32;33937;-67
2022/01/18 08:16:09;;;;;;;7.30;2.78;;;;;;;3.11;59.39;101276.28;4362681;32;32983;-68
2022/01/18 08:18:37;;;;;;;3.87;2.30;;;;;;;2.89;59.43;101280.34;4362185;32;33583;-68
2022/01/18 08:21:07;;;;;;;6.45;2.53;;;;;;;2.93;58.95;101291.59;4362547;32;35038;-69
2022/01/18 08:23:37;;;;;;;0.50;0.50;;;;;;;3.51;57.78;101301.53;4362692;32;34134;-67
2022/01/18 08:26:05;;;;;;;4.45;2.60;;;;;;;3.58;57.93;101299.84;4362175;32;33525;-68
2022/01/18 08:28:32;;;;;;;6.07;2.62;;;;;;;3.81;56.75;101309.97;4362568;32;34791;-68
2022/01/18 08:30:59;;;;;;;3.90;1.92;;;;;;;3.32;58.38;101309.84;4362489;32;34179;-69
2022/01/18 08:33:27;;;;;;;6.25;2.87;;;;;;;3.21;58.44;101322.56;4361843;32;33565;-69
2022/01/18 08:35:55;;;;;;;5.72;2.62;;;;;;;4.19;55.86;101324.59;4362493;32;33526;-67
2022/01/18 08:38:22;;;;;;;7.12;2.65;;;;;;;4.14;55.48;101318.03;4362486;32;33884;-70
2022/01/18 08:40:50;;;;;;;6.20;2.70;;;;;;;4.73;54.10;101318.66;4361912;32;34175;-68
2022/01/18 08:43:17;;;;;;;10.18;3.75;;;;;;;4.70;54.79;101318.97;4362792;32;33831;-68
2022/01/18 08:45:45;;;;;;;8.63;2.42;;;;;;;5.12;53.26;101321.37;4349065;32;33621;-67
2022/01/18 08:48:13;;;;;;;4.10;2.58;;;;;;;5.22;52.80;101336.47;4361586;32;33675;-68
2022/01/18 08:50:40;;;;;;;6.65;2.25;;;;;;;5.36;53.00;101335.75;4348865;32;34081;-68
2022/01/18 08:53:08;;;;;;;6.65;2.58;;;;;;;4.74;53.06;101331.06;4348587;32;33580;-68
2022/01/18 08:55:36;;;;;;;8.90;2.92;;;;;;;4.73;54.03;101334.78;4363063;32;33443;-67
2022/01/18 08:58:04;;;;;;;7.43;2.33;;;;;;;5.66;51.71;101335.91;4363375;32;34858;-68
2022/01/18 09:00:32;;;;;;;5.57;2.17;;;;;;;5.41;51.51;101337.91;4363691;32;33646;-67
2022/01/18 09:03:00;;;;;;;7.20;2.50;;;;;;;5.17;51.54;101345.06;4363189;32;34063;-69
2022/01/18 09:05:28;;;;;;;5.15;2.62;;;;;;;5.22;51.93;101352.63;4363355;32;33389;-68
2022/01/18 09:07:59;;;;;;;6.72;2.40;;;;;;;5.30;50.81;101353.41;4363320;32;33801;-70
2022/01/18 09:10:27;;;;;;;4.85;2.70;;;;;;;5.10;51.53;101357.53;4363451;32;34033;-71
2022/01/18 09:12:55;;;;;;;7.07;2.78;;;;;;;5.80;50.09;101347.78;4362076;32;34695;-69
2022/01/18 09:15:24;;;;;;;5.72;2.33;;;;;;;6.42;48.87;101350.38;4362914;32;33392;-68
2022/01/18 09:17:52;;;;;;;6.82;2.28;;;;;;;5.90;49.81;101362.69;4363441;32;35102;-68
2022/01/18 09:20:20;;;;;;;6.95;2.03;;;;;;;6.34;49.09;101361.22;4361694;32;33984;-71
2022/01/18 09:22:48;;;;;;;6.10;2.05;;;;;;;6.46;48.87;101361.66;4349927;32;33632;-68
2022/01/18 09:25:22;;;;;;;3.95;2.22;;;;;;;6.58;47.76;101376.34;4363366;32;34257;-68
2022/01/18 09:27:50;;;;;;;3.22;1.87;;;;;;;6.32;47.83;101379.44;4354466;32;33766;-68
2022/01/18 09:30:18;;;;;;;6.53;2.25;;;;;;;5.97;48.91;101395.19;4378053;32;34262;-69
2022/01/18 09:32:46;;;;;;;6.10;1.87;;;;;;;5.10;50.65;101377.22;4378372;32;33767;-70
2022/01/18 09:35:15;;;;;;;6.85;1.85;;;;;;;5.63;50.05;101384.72;4378106;32;34145;-72
2022/01/18 09:37:43;;;;;;;4.43;1.83;;;;;;;4.85;52.08;101387.19;4364636;32;33819;-68
2022/01/18 09:40:14;;;;;;;4.12;2.00;;;;;;;4.86;51.17;101371.88;4361595;32;34011;-70
2022/01/18 09:42:43;;;;;;;7.37;2.12;;;;;;;5.61;51.14;101384.06;4364540;32;33910;-67
2022/01/18 09:45:14;;;;;;;5.82;1.95;;;;;;;6.34;48.54;101374.69;4377980;32;33480;-70
2022/01/18 09:47:43;;;;;;;3.83;1.75;;;;;;;6.01;49.39;101383.03;4378292;32;33845;-71
2022/01/18 09:50:14;;;;;;;5.32;2.08;;;;;;;5.81;49.58;101389.84;4378322;32;34929;-70
2022/01/18 09:52:41;;;;;;;3.92;1.87;;;;;;;5.84;49.16;101393.03;4378464;32;34075;-70
2022/01/18 09:55:09;;;;;;;4.70;1.87;;;;;;;5.49;50.24;101392.53;4364279;32;33397;-70
2022/01/18 09:57:37;;;;;;;4.18;2.03;;;;;;;6.11;49.10;101385.47;4371041;32;34134;-74
2022/01/18 10:00:06;;;;;;;5.97;2.60;;;;;;;6.19;48.51;101387.28;4348959;32;34158;-68
2022/01/18 10:02:38;;;;;;;6.35;2.12;;;;;;;6.28;48.33;101396.97;4363100;32;34847;-68
2022/01/18 10:05:27;;;;;;;5.28;2.22;;;;;;;5.58;49.31;101397.91;4360885;32;33574;-67
2022/01/18 10:08:02;;;;;;;6.37;2.10;;;;;;;5.52;50.29;101392.19;4349752;32;34603;-67
2022/01/18 10:10:48;;;;;;;7.25;2.87;;;;;;;5.70;48.94;101386.56;4361421;32;33965;-67
2022/01/18 10:13:18;;;;;;;5.87;2.00;;;;;;;5.59;48.82;101388.78;4362934;32;33933;-67
2022/01/18 10:16:04;;;;;;;6.70;2.30;;;;;;;4.88;51.10;101392.22;4362844;32;32986;-68
2022/01/18 10:18:49;;;;;;;6.25;2.08;;;;;;;5.20;50.65;101393.13;4363307;32;34572;-68
2022/01/18 10:21:24;;;;;;;7.20;2.47;;;;;;;4.92;51.00;101403.47;4362979;32;34961;-69
2022/01/18 10:23:54;;;;;;;4.53;2.10;;;;;;;4.64;52.24;101406.53;4362658;32;33810;-67
2022/01/18 10:26:24;;;;;;;5.15;2.60;;;;;;;5.18;50.66;101397.03;4349795;32;34353;-68
2022/01/18 10:29:00;;;;;;;6.60;2.55;;;;;;;5.10;51.59;101404.13;4363225;32;33933;-69
2022/01/18 10:31:36;;;;;;;11.57;4.22;;;;;;;5.91;49.35;101402.06;4363039;32;34054;-71
2022/01/18 10:34:23;;;;;;;6.85;2.65;;;;;;;5.66;48.88;101400.53;4363154;32;34509;-68
2022/01/18 10:36:59;;;;;;;7.45;2.25;;;;;;;5.67;48.79;101400.34;4362558;32;34457;-67
2022/01/18 10:39:35;;;;;;;5.65;2.35;;;;;;;5.42;49.84;101393.41;4363471;32;33884;-68
2022/01/18 10:42:19;;;;;;;5.40;2.30;;;;;;;5.29;50.14;101383.19;4362931;32;35461;-68
2022/01/18 10:44:48;;;;;;;7.43;2.35;;;;;;;5.13;50.68;101384.09;4363038;32;34798;-69
2022/01/18 10:47:17;;;;;;;7.70;4.45;;;;;;;5.90;49.36;101380.72;4362905;32;33430;-72
2022/01/18 10:49:47;;;;;;;10.57;2.40;;;;;;;5.21;50.40;101388.63;4361482;32;33608;-75
2022/01/18 10:52:22;;;;;;;6.22;2.28;;;;;;;4.79;50.40;101387.84;4349564;32;33949;-74
2022/01/18 10:54:57;;;;;;;;;;;;;;;4.91;51.14;101382.97;4363256;32;34681;-71
2022/01/18 10:57:44;;;;;;;6.60;3.03;;;;;;;4.80;51.42;101381.47;4349872;32;33244;-69
2022/01/18 11:00:21;;;;;;;11.52;0.88;;;;;;;5.51;49.84;101371.66;4362995;32;33918;-73
2022/01/18 11:02:51;;;;;;;4.93;1.87;;;;;;;4.83;50.24;101383.81;4362827;32;34096;-69
2022/01/18 11:05:27;;;;;;;10.43;2.17;;;;;;;4.75;50.81;101391.88;4362901;32;31897;-70
2022/01/18 11:07:57;;;;;;;9.63;3.70;;;;;;;4.26;51.23;101381.19;4363009;32;33569;-70
2022/01/18 11:10:29;;;;;;;7.55;2.47;;;;;;;4.36;51.49;101376.47;4362513;32;34010;-70
2022/01/18 11:13:11;;;;;;;12.80;6.80;;;;;;;4.82;50.56;101390.22;4362823;32;34116;-79
2022/01/18 11:15:42;;;;;;;4.03;1.77;;;;;;;5.36;49.93;101400.34;4349457;32;33811;-73
2022/01/18 11:18:25;;;;;;;7.28;2.60;;;;;;;4.71;50.72;101417.47;4362726;32;33291;-68
2022/01/18 11:20:52;;;;;;;6.55;2.50;;;;;;;5.09;50.41;101415.03;4350714;32;33615;-67
2022/01/18 11:23:21;;;;;;;15.90;8.05;;;;;;;4.78;50.34;101399.63;4362724;32;34267;-67
2022/01/18 11:25:53;;;;;;;5.20;1.75;;;;;;;4.82;51.13;101406.34;4362704;32;34007;-67
2022/01/18 11:28:20;;;;;;;16.02;7.87;;;;;;;5.06;49.26;101407.31;4362397;32;33359;-66
2022/01/18 11:30:48;;;;;;;24.25;11.18;;;;;;;5.06;49.39;101393.88;4349049;32;34654;-70
2022/01/18 11:33:17;;;;;;;6.65;2.30;;;;;;;5.17;49.86;101417.72;4362577;32;34022;-69
2022/01/18 11:36:05;;;;;;;5.15;1.90;;;;;;;4.88;49.78;101403.00;4349131;32;33475;-71
2022/01/18 11:38:54;;;;;;;6.35;3.47;;;;;;;4.98;50.04;101392.03;4362039;32;33374;-68
2022/01/18 11:41:27;;;;;;;7.55;2.35;;;;;;;5.47;48.96;101407.19;4348782;32;33571;-68
2022/01/18 11:43:56;;;;;;;5.70;2.60;;;;;;;4.75;50.63;101417.94;4347930;32;35242;-67
2022/01/18 11:46:31;;;;;;;5.03;2.17;;;;;;;4.76;50.69;101422.34;4347472;32;34477;-67
2022/01/18 11:49:05;;;;;;;7.22;2.25;;;;;;;4.88;49.64;101421.81;4361962;32;34394;-70
2022/01/18 11:51:49;;;;;;;3.63;2.10;;;;;;;4.41;51.39;101421.66;4367206;32;34409;-67
2022/01/18 11:54:35;;;;;;;0.40;0.40;;;;;;;4.73;50.81;101418.97;4370300;32;34030;-68
2022/01/18 11:57:22;;;;;;;6.12;1.90;;;;;;;5.24;49.55;101420.56;4362013;32;33958;-68
2022/01/18 12:00:00;;;;;;;5.15;1.90;;;;;;;4.65;49.83;101413.59;4354215;32;33451;-68
2022/01/18 12:02:42;;;;;;;4.45;2.03;;;;;;;5.70;48.09;101415.31;4348772;32;33471;-67
2022/01/18 12:05:17;;;;;;;5.22;2.58;;;;;;;5.32;48.11;101410.59;4348303;32;33875;-67
2022/01/18 12:07:47;;;;;;;9.45;4.80;;;;;;;5.20;49.08;101392.31;4361518;32;34027;-69
2022/01/18 12:10:34;;;;;;;5.15;2.65;;;;;;;5.98;47.21;101402.22;4361786;32;33545;-67
2022/01/18 12:13:03;;;;;;;4.90;2.78;;;;;;;6.07;46.64;101405.72;4346602;32;33410;-69
2022/01/18 12:15:33;;;;;;;9.32;3.95;;;;;;;5.12;48.41;101415.53;4361783;32;35107;-66
2022/01/18 12:18:03;;;;;;;4.57;2.85;;;;;;;4.76;49.42;101404.34;4361999;32;34770;-68
2022/01/18 12:20:42;;;;;;;5.07;2.20;;;;;;;5.66;47.73;101412.16;4361455;32;33596;-67
2022/01/18 12:23:18;;;;;;;9.23;3.37;;;;;;;5.39;48.22;101405.34;4363508;32;33884;-73
2022/01/18 12:26:00;;;;;;;8.52;3.03;;;;;;;5.57;48.00;101412.34;4363749;32;35145;-67
2022/01/18 12:29:08;;;;;;;4.30;2.20;;;;;;;5.41;48.19;101403.34;4363757;32;33691;-68
2022/01/18 12:34:33;;;;;;;5.82;2.72;;;;;;;5.90;46.79;101430.03;4362648;32;33992;-73
2022/01/18 12:37:11;;;;;;;7.03;2.70;;;;;;;5.80;47.11;101415.94;4358872;32;34158;-70
2022/01/18 12:39:51;;;;;;;9.10;2.97;;;;;;;5.65;47.97;101425.78;4347374;33;33414;-66
2022/01/18 12:45:42;;;;;;;6.45;2.08;;;;;;;5.38;47.51;101421.69;4336017;33;34748;-71
2022/01/18 12:48:10;;;;;;;6.87;2.15;;;;;;;5.48;47.85;101425.84;4335770;33;34320;-73
2022/01/18 12:50:42;;;;;;;5.97;2.33;;;;;;;5.11;48.22;101439.91;4347096;33;34579;-68
2022/01/18 12:53:11;;;;;;;4.28;2.25;;;;;;;5.05;48.40;101441.44;4347254;33;34735;-71
2022/01/18 12:56:08;;;;;;;10.57;2.80;;;;;;;5.82;47.91;101424.69;4347072;33;34874;-69
2022/01/18 12:58:45;;;;;;;5.15;2.42;;;;;;;5.50;47.49;101418.44;4347477;33;35838;-67
2022/01/18 13:01:15;;;;;;;7.03;2.42;;;;;;;5.75;48.39;101427.25;4347293;32;33919;-68
2022/01/18 13:03:46;;;;;;;6.37;2.30;;;;;;;5.35;48.17;101431.78;4361632;32;34169;-69
2022/01/18 13:06:17;;;;;;;4.78;2.28;;;;;;;4.34;51.28;101436.75;4361796;32;33879;-69
2022/01/18 13:08:46;;;;;;;7.95;2.45;;;;;;;4.57;50.70;101431.56;4361463;32;33743;-70
2022/01/18 13:11:22;;;;;;;5.18;2.33;;;;;;;5.21;49.69;101421.75;4362105;32;34494;-67
2022/01/18 13:14:03;;;;;;;5.35;2.78;;;;;;;5.47;48.40;101426.87;4362266;32;33588;-69